Terminal Aerodrome Forecast
Issued by NWS

Home | Current Version | Previous Version | Text Only | Print | Product List | Glossary On
Versions: 1 2 3 4 5 6 7 8 9 10 11 12 13 14 15 16 17 18 19 20 21 22 23 24 25
000
FTUS41 KBGM 201500 AAA
TAFITH
TAF AMD
KITH 201543Z 2016/2112 32006KT P6SM OVC017
     FM201900 30003KT P6SM OVC020
     FM210500 VRB03KT P6SM SCT020 OVC150=

USA.gov is the U.S. government's official web portal to all federal, state and local government web resources and services.